sensor_id;sensor_type;location;lat;lon;timestamp;P1;durP1;ratioP1;P2;durP2;ratioP2
52542;SDS011;38449;52.696;6.186;2022-07-23T00:01:22;5.07;;;2.97;;
52542;SDS011;38449;52.696;6.186;2022-07-23T00:03:48;6.95;;;3.40;;
52542;SDS011;38449;52.696;6.186;2022-07-23T00:06:14;5.82;;;2.70;;
52542;SDS011;38449;52.696;6.186;2022-07-23T00:08:40;6.53;;;3.33;;
52542;SDS011;38449;52.696;6.186;2022-07-23T00:11:06;4.30;;;2.92;;
52542;SDS011;38449;52.696;6.186;2022-07-23T00:13:32;6.63;;;3.10;;
52542;SDS011;38449;52.696;6.186;2022-07-23T00:15:58;6.50;;;2.90;;
52542;SDS011;38449;52.696;6.186;2022-07-23T00:18:23;7.38;;;3.13;;
52542;SDS011;38449;52.696;6.186;2022-07-23T00:20:49;7.10;;;3.40;;
52542;SDS011;38449;52.696;6.186;2022-07-23T00:23:15;6.05;;;2.80;;
52542;SDS011;38449;52.696;6.186;2022-07-23T00:25:42;5.03;;;2.92;;
52542;SDS011;38449;52.696;6.186;2022-07-23T00:28:07;5.80;;;2.97;;
52542;SDS011;38449;52.696;6.186;2022-07-23T00:30:33;6.90;;;3.20;;
52542;SDS011;38449;52.696;6.186;2022-07-23T00:33:00;7.63;;;3.45;;
52542;SDS011;38449;52.696;6.186;2022-07-23T00:35:28;6.50;;;2.85;;
52542;SDS011;38449;52.696;6.186;2022-07-23T00:37:56;5.32;;;3.17;;
52542;SDS011;38449;52.696;6.186;2022-07-23T00:40:23;4.95;;;3.30;;
52542;SDS011;38449;52.696;6.186;2022-07-23T00:42:49;5.97;;;3.35;;
52542;SDS011;38449;52.696;6.186;2022-07-23T00:45:15;7.25;;;3.70;;
52542;SDS011;38449;52.696;6.186;2022-07-23T00:47:41;6.10;;;3.30;;
52542;SDS011;38449;52.696;6.186;2022-07-23T00:50:07;7.47;;;3.28;;
52542;SDS011;38449;52.696;6.186;2022-07-23T00:52:34;4.82;;;3.40;;
52542;SDS011;38449;52.696;6.186;2022-07-23T00:55:01;5.38;;;3.15;;
52542;SDS011;38449;52.696;6.186;2022-07-23T00:57:28;4.85;;;3.22;;
52542;SDS011;38449;52.696;6.186;2022-07-23T00:59:54;7.10;;;3.33;;
52542;SDS011;38449;52.696;6.186;2022-07-23T01:02:21;4.43;;;3.20;;
52542;SDS011;38449;52.696;6.186;2022-07-23T01:04:46;6.40;;;3.38;;
52542;SDS011;38449;52.696;6.186;2022-07-23T01:07:13;8.05;;;3.60;;
52542;SDS011;38449;52.696;6.186;2022-07-23T01:09:38;7.13;;;3.58;;
52542;SDS011;38449;52.696;6.186;2022-07-23T01:12:05;5.00;;;3.58;;
52542;SDS011;38449;52.696;6.186;2022-07-23T01:14:31;7.95;;;3.80;;
52542;SDS011;38449;52.696;6.186;2022-07-23T01:16:57;5.85;;;3.47;;
52542;SDS011;38449;52.696;6.186;2022-07-23T01:19:23;8.85;;;3.45;;
52542;SDS011;38449;52.696;6.186;2022-07-23T01:21:49;6.10;;;3.45;;
52542;SDS011;38449;52.696;6.186;2022-07-23T01:24:16;6.93;;;3.80;;
52542;SDS011;38449;52.696;6.186;2022-07-23T01:26:46;4.50;;;3.15;;
52542;SDS011;38449;52.696;6.186;2022-07-23T01:29:13;4.95;;;3.13;;
52542;SDS011;38449;52.696;6.186;2022-07-23T01:31:40;6.00;;;3.03;;
52542;SDS011;38449;52.696;6.186;2022-07-23T01:34:06;4.28;;;2.80;;
52542;SDS011;38449;52.696;6.186;2022-07-23T01:36:33;5.38;;;3.42;;
52542;SDS011;38449;52.696;6.186;2022-07-23T01:39:03;5.45;;;3.47;;
52542;SDS011;38449;52.696;6.186;2022-07-23T01:41:29;8.55;;;4.30;;
52542;SDS011;38449;52.696;6.186;2022-07-23T01:43:55;4.28;;;3.00;;
52542;SDS011;38449;52.696;6.186;2022-07-23T01:46:21;7.00;;;3.65;;
52542;SDS011;38449;52.696;6.186;2022-07-23T01:48:47;6.65;;;3.60;;
52542;SDS011;38449;52.696;6.186;2022-07-23T01:51:14;5.07;;;3.42;;
52542;SDS011;38449;52.696;6.186;2022-07-23T01:53:39;7.68;;;3.72;;
52542;SDS011;38449;52.696;6.186;2022-07-23T01:56:05;6.15;;;3.70;;
52542;SDS011;38449;52.696;6.186;2022-07-23T01:58:31;10.43;;;4.97;;
52542;SDS011;38449;52.696;6.186;2022-07-23T02:00:57;7.00;;;3.55;;
52542;SDS011;38449;52.696;6.186;2022-07-23T02:03:23;7.45;;;3.40;;
52542;SDS011;38449;52.696;6.186;2022-07-23T02:05:50;7.95;;;3.33;;
52542;SDS011;38449;52.696;6.186;2022-07-23T02:08:16;6.90;;;3.30;;
52542;SDS011;38449;52.696;6.186;2022-07-23T02:10:42;4.68;;;3.10;;
52542;SDS011;38449;52.696;6.186;2022-07-23T02:13:08;5.65;;;3.17;;
52542;SDS011;38449;52.696;6.186;2022-07-23T02:15:34;6.00;;;3.60;;
52542;SDS011;38449;52.696;6.186;2022-07-23T02:18:00;7.50;;;3.72;;
52542;SDS011;38449;52.696;6.186;2022-07-23T02:20:25;8.65;;;3.83;;
52542;SDS011;38449;52.696;6.186;2022-07-23T02:22:51;6.20;;;3.15;;
52542;SDS011;38449;52.696;6.186;2022-07-23T02:25:17;5.93;;;2.95;;
52542;SDS011;38449;52.696;6.186;2022-07-23T02:27:43;4.68;;;3.10;;
52542;SDS011;38449;52.696;6.186;2022-07-23T02:30:09;6.85;;;3.00;;
52542;SDS011;38449;52.696;6.186;2022-07-23T02:32:35;6.20;;;3.10;;
52542;SDS011;38449;52.696;6.186;2022-07-23T02:35:01;4.93;;;3.03;;
52542;SDS011;38449;52.696;6.186;2022-07-23T02:37:28;5.75;;;3.65;;
52542;SDS011;38449;52.696;6.186;2022-07-23T02:39:53;5.38;;;3.20;;
52542;SDS011;38449;52.696;6.186;2022-07-23T02:42:19;4.65;;;2.90;;
52542;SDS011;38449;52.696;6.186;2022-07-23T02:44:45;6.10;;;3.13;;
52542;SDS011;38449;52.696;6.186;2022-07-23T02:47:11;7.82;;;3.70;;
52542;SDS011;38449;52.696;6.186;2022-07-23T02:49:36;5.60;;;3.10;;
52542;SDS011;38449;52.696;6.186;2022-07-23T02:52:02;6.25;;;3.35;;
52542;SDS011;38449;52.696;6.186;2022-07-23T02:54:28;4.10;;;3.20;;
52542;SDS011;38449;52.696;6.186;2022-07-23T02:56:54;5.22;;;3.10;;
52542;SDS011;38449;52.696;6.186;2022-07-23T02:59:20;7.32;;;3.55;;
52542;SDS011;38449;52.696;6.186;2022-07-23T03:01:45;6.57;;;3.38;;
52542;SDS011;38449;52.696;6.186;2022-07-23T03:04:11;4.63;;;3.35;;
52542;SDS011;38449;52.696;6.186;2022-07-23T03:06:37;7.07;;;3.83;;
52542;SDS011;38449;52.696;6.186;2022-07-23T03:09:04;5.40;;;4.00;;
52542;SDS011;38449;52.696;6.186;2022-07-23T03:11:30;6.10;;;4.30;;
52542;SDS011;38449;52.696;6.186;2022-07-23T03:13:56;7.45;;;4.22;;
52542;SDS011;38449;52.696;6.186;2022-07-23T03:16:22;6.32;;;4.32;;
52542;SDS011;38449;52.696;6.186;2022-07-23T03:18:47;5.20;;;3.72;;
52542;SDS011;38449;52.696;6.186;2022-07-23T03:21:13;5.57;;;4.13;;
52542;SDS011;38449;52.696;6.186;2022-07-23T03:23:39;6.00;;;4.22;;
52542;SDS011;38449;52.696;6.186;2022-07-23T03:26:05;7.85;;;4.28;;
52542;SDS011;38449;52.696;6.186;2022-07-23T03:28:31;8.25;;;4.30;;
52542;SDS011;38449;52.696;6.186;2022-07-23T03:30:57;9.35;;;4.68;;
52542;SDS011;38449;52.696;6.186;2022-07-23T03:33:23;8.48;;;5.07;;
52542;SDS011;38449;52.696;6.186;2022-07-23T03:35:49;10.60;;;5.30;;
52542;SDS011;38449;52.696;6.186;2022-07-23T03:38:14;6.32;;;5.00;;
52542;SDS011;38449;52.696;6.186;2022-07-23T03:40:40;8.10;;;4.72;;
52542;SDS011;38449;52.696;6.186;2022-07-23T03:43:06;7.88;;;5.15;;
52542;SDS011;38449;52.696;6.186;2022-07-23T03:45:32;6.40;;;4.40;;
52542;SDS011;38449;52.696;6.186;2022-07-23T03:47:58;7.63;;;5.38;;
52542;SDS011;38449;52.696;6.186;2022-07-23T03:50:24;8.07;;;5.40;;
52542;SDS011;38449;52.696;6.186;2022-07-23T03:52:50;7.28;;;5.05;;
52542;SDS011;38449;52.696;6.186;2022-07-23T03:55:16;6.80;;;4.57;;
52542;SDS011;38449;52.696;6.186;2022-07-23T03:57:42;5.75;;;4.40;;
52542;SDS011;38449;52.696;6.186;2022-07-23T04:00:08;8.20;;;5.05;;
52542;SDS011;38449;52.696;6.186;2022-07-23T04:02:37;7.97;;;5.55;;
52542;SDS011;38449;52.696;6.186;2022-07-23T04:05:03;7.15;;;4.68;;
52542;SDS011;38449;52.696;6.186;2022-07-23T04:07:29;6.68;;;4.80;;
52542;SDS011;38449;52.696;6.186;2022-07-23T04:09:55;7.75;;;4.57;;
52542;SDS011;38449;52.696;6.186;2022-07-23T04:12:21;8.88;;;5.20;;
52542;SDS011;38449;52.696;6.186;2022-07-23T04:14:46;9.05;;;4.65;;
52542;SDS011;38449;52.696;6.186;2022-07-23T04:17:12;9.05;;;4.82;;
52542;SDS011;38449;52.696;6.186;2022-07-23T04:19:38;9.50;;;4.85;;
52542;SDS011;38449;52.696;6.186;2022-07-23T04:22:08;9.23;;;5.22;;
52542;SDS011;38449;52.696;6.186;2022-07-23T04:24:35;7.80;;;4.85;;
52542;SDS011;38449;52.696;6.186;2022-07-23T04:27:02;7.60;;;5.15;;
52542;SDS011;38449;52.696;6.186;2022-07-23T04:29:28;9.32;;;5.18;;
52542;SDS011;38449;52.696;6.186;2022-07-23T04:31:54;7.50;;;4.55;;
52542;SDS011;38449;52.696;6.186;2022-07-23T04:34:20;7.30;;;4.65;;
52542;SDS011;38449;52.696;6.186;2022-07-23T04:36:46;6.93;;;4.15;;
52542;SDS011;38449;52.696;6.186;2022-07-23T04:39:12;6.07;;;4.45;;
52542;SDS011;38449;52.696;6.186;2022-07-23T04:41:38;7.03;;;4.38;;
52542;SDS011;38449;52.696;6.186;2022-07-23T04:44:04;8.02;;;4.50;;
52542;SDS011;38449;52.696;6.186;2022-07-23T04:46:30;8.50;;;4.35;;
52542;SDS011;38449;52.696;6.186;2022-07-23T04:48:55;7.15;;;4.03;;
52542;SDS011;38449;52.696;6.186;2022-07-23T04:51:21;8.77;;;3.72;;
52542;SDS011;38449;52.696;6.186;2022-07-23T04:53:47;9.30;;;4.28;;
52542;SDS011;38449;52.696;6.186;2022-07-23T04:56:12;7.15;;;4.13;;
52542;SDS011;38449;52.696;6.186;2022-07-23T04:58:38;10.13;;;3.90;;
52542;SDS011;38449;52.696;6.186;2022-07-23T05:01:04;8.27;;;4.57;;
52542;SDS011;38449;52.696;6.186;2022-07-23T05:03:29;7.85;;;4.25;;
52542;SDS011;38449;52.696;6.186;2022-07-23T05:05:55;7.22;;;3.75;;
52542;SDS011;38449;52.696;6.186;2022-07-23T05:08:21;6.57;;;3.80;;
52542;SDS011;38449;52.696;6.186;2022-07-23T05:10:46;6.65;;;3.58;;
52542;SDS011;38449;52.696;6.186;2022-07-23T05:13:14;11.90;;;4.22;;
52542;SDS011;38449;52.696;6.186;2022-07-23T05:15:41;6.65;;;3.75;;
52542;SDS011;38449;52.696;6.186;2022-07-23T05:18:07;7.40;;;3.70;;
52542;SDS011;38449;52.696;6.186;2022-07-23T05:20:32;6.32;;;3.20;;
52542;SDS011;38449;52.696;6.186;2022-07-23T05:22:58;5.22;;;3.15;;
52542;SDS011;38449;52.696;6.186;2022-07-23T05:25:24;4.80;;;2.53;;
52542;SDS011;38449;52.696;6.186;2022-07-23T05:27:49;5.85;;;3.20;;
52542;SDS011;38449;52.696;6.186;2022-07-23T05:30:15;6.15;;;3.33;;
52542;SDS011;38449;52.696;6.186;2022-07-23T05:32:41;5.25;;;3.10;;
52542;SDS011;38449;52.696;6.186;2022-07-23T05:35:06;5.43;;;3.20;;
52542;SDS011;38449;52.696;6.186;2022-07-23T05:37:33;5.50;;;3.15;;
52542;SDS011;38449;52.696;6.186;2022-07-23T05:40:02;5.22;;;2.70;;
52542;SDS011;38449;52.696;6.186;2022-07-23T05:42:35;5.85;;;2.90;;
52542;SDS011;38449;52.696;6.186;2022-07-23T05:45:06;8.65;;;2.85;;
52542;SDS011;38449;52.696;6.186;2022-07-23T05:47:42;7.88;;;2.55;;
52542;SDS011;38449;52.696;6.186;2022-07-23T05:50:09;5.32;;;2.83;;
52542;SDS011;38449;52.696;6.186;2022-07-23T05:52:35;7.68;;;2.40;;
52542;SDS011;38449;52.696;6.186;2022-07-23T05:55:01;3.65;;;2.40;;
52542;SDS011;38449;52.696;6.186;2022-07-23T05:57:26;4.25;;;2.45;;
52542;SDS011;38449;52.696;6.186;2022-07-23T05:59:52;3.83;;;2.28;;
52542;SDS011;38449;52.696;6.186;2022-07-23T06:02:17;5.80;;;2.80;;
52542;SDS011;38449;52.696;6.186;2022-07-23T06:04:43;4.68;;;2.50;;
52542;SDS011;38449;52.696;6.186;2022-07-23T06:07:09;9.23;;;2.75;;
52542;SDS011;38449;52.696;6.186;2022-07-23T06:09:34;6.05;;;2.30;;
52542;SDS011;38449;52.696;6.186;2022-07-23T06:12:00;4.22;;;2.28;;
52542;SDS011;38449;52.696;6.186;2022-07-23T06:14:26;4.72;;;2.30;;
52542;SDS011;38449;52.696;6.186;2022-07-23T06:16:51;6.70;;;2.72;;
52542;SDS011;38449;52.696;6.186;2022-07-23T06:19:17;3.55;;;2.40;;
52542;SDS011;38449;52.696;6.186;2022-07-23T06:21:43;3.80;;;1.70;;
52542;SDS011;38449;52.696;6.186;2022-07-23T06:24:08;3.95;;;1.77;;
52542;SDS011;38449;52.696;6.186;2022-07-23T06:26:34;3.17;;;1.60;;
52542;SDS011;38449;52.696;6.186;2022-07-23T06:29:00;3.65;;;1.60;;
52542;SDS011;38449;52.696;6.186;2022-07-23T06:31:25;4.97;;;1.42;;
52542;SDS011;38449;52.696;6.186;2022-07-23T06:33:51;3.53;;;1.60;;
52542;SDS011;38449;52.696;6.186;2022-07-23T06:36:17;2.28;;;1.05;;
52542;SDS011;38449;52.696;6.186;2022-07-23T06:38:42;3.72;;;1.33;;
52542;SDS011;38449;52.696;6.186;2022-07-23T06:41:08;5.00;;;2.05;;
52542;SDS011;38449;52.696;6.186;2022-07-23T06:43:34;4.60;;;1.50;;
52542;SDS011;38449;52.696;6.186;2022-07-23T06:46:00;2.17;;;1.20;;
52542;SDS011;38449;52.696;6.186;2022-07-23T06:48:25;4.22;;;1.38;;
52542;SDS011;38449;52.696;6.186;2022-07-23T06:50:51;4.18;;;1.40;;
52542;SDS011;38449;52.696;6.186;2022-07-23T06:53:17;3.20;;;1.33;;
52542;SDS011;38449;52.696;6.186;2022-07-23T06:55:43;4.97;;;1.75;;
52542;SDS011;38449;52.696;6.186;2022-07-23T06:58:09;5.47;;;1.42;;
52542;SDS011;38449;52.696;6.186;2022-07-23T07:00:35;3.63;;;1.33;;
52542;SDS011;38449;52.696;6.186;2022-07-23T07:03:01;2.78;;;1.25;;
52542;SDS011;38449;52.696;6.186;2022-07-23T07:05:27;3.67;;;1.30;;
52542;SDS011;38449;52.696;6.186;2022-07-23T07:07:55;3.30;;;1.60;;
52542;SDS011;38449;52.696;6.186;2022-07-23T07:10:21;3.08;;;1.40;;
52542;SDS011;38449;52.696;6.186;2022-07-23T07:12:47;4.43;;;1.25;;
52542;SDS011;38449;52.696;6.186;2022-07-23T07:15:13;3.60;;;1.10;;
52542;SDS011;38449;52.696;6.186;2022-07-23T07:17:39;3.15;;;1.60;;
52542;SDS011;38449;52.696;6.186;2022-07-23T07:20:07;4.18;;;1.70;;
52542;SDS011;38449;52.696;6.186;2022-07-23T07:22:33;2.60;;;1.30;;
52542;SDS011;38449;52.696;6.186;2022-07-23T07:24:59;5.07;;;1.60;;
52542;SDS011;38449;52.696;6.186;2022-07-23T07:27:25;2.92;;;1.60;;
52542;SDS011;38449;52.696;6.186;2022-07-23T07:29:50;3.55;;;1.48;;
52542;SDS011;38449;52.696;6.186;2022-07-23T07:32:16;4.22;;;1.50;;
52542;SDS011;38449;52.696;6.186;2022-07-23T07:34:42;3.88;;;1.45;;
52542;SDS011;38449;52.696;6.186;2022-07-23T07:37:10;3.13;;;1.70;;
52542;SDS011;38449;52.696;6.186;2022-07-23T07:39:36;2.63;;;1.50;;
52542;SDS011;38449;52.696;6.186;2022-07-23T07:42:02;3.42;;;1.60;;
52542;SDS011;38449;52.696;6.186;2022-07-23T07:44:27;4.18;;;1.58;;
52542;SDS011;38449;52.696;6.186;2022-07-23T07:46:53;2.47;;;1.30;;
52542;SDS011;38449;52.696;6.186;2022-07-23T07:49:19;4.35;;;1.63;;
52542;SDS011;38449;52.696;6.186;2022-07-23T07:51:44;5.00;;;1.40;;
52542;SDS011;38449;52.696;6.186;2022-07-23T07:54:11;2.40;;;1.08;;
52542;SDS011;38449;52.696;6.186;2022-07-23T07:56:37;4.30;;;1.42;;
52542;SDS011;38449;52.696;6.186;2022-07-23T07:59:02;2.75;;;1.30;;
52542;SDS011;38449;52.696;6.186;2022-07-23T08:01:28;3.30;;;1.20;;
52542;SDS011;38449;52.696;6.186;2022-07-23T08:03:54;1.60;;;1.00;;
52542;SDS011;38449;52.696;6.186;2022-07-23T08:06:20;3.97;;;1.30;;
52542;SDS011;38449;52.696;6.186;2022-07-23T08:08:45;1.80;;;1.00;;
52542;SDS011;38449;52.696;6.186;2022-07-23T08:11:11;2.90;;;1.13;;
52542;SDS011;38449;52.696;6.186;2022-07-23T08:13:37;2.40;;;1.08;;
52542;SDS011;38449;52.696;6.186;2022-07-23T08:16:02;2.65;;;1.10;;
52542;SDS011;38449;52.696;6.186;2022-07-23T08:18:28;1.45;;;0.90;;
52542;SDS011;38449;52.696;6.186;2022-07-23T08:20:54;3.03;;;1.10;;
52542;SDS011;38449;52.696;6.186;2022-07-23T08:23:19;1.58;;;1.00;;
52542;SDS011;38449;52.696;6.186;2022-07-23T08:25:45;2.88;;;1.10;;
52542;SDS011;38449;52.696;6.186;2022-07-23T08:28:15;0.70;;;0.70;;
52542;SDS011;38449;52.696;6.186;2022-07-23T08:30:41;3.05;;;1.02;;
52542;SDS011;38449;52.696;6.186;2022-07-23T08:33:10;3.63;;;1.27;;
52542;SDS011;38449;52.696;6.186;2022-07-23T08:35:41;1.75;;;1.15;;
52542;SDS011;38449;52.696;6.186;2022-07-23T08:38:11;1.20;;;0.80;;
52542;SDS011;38449;52.696;6.186;2022-07-23T08:40:41;1.20;;;0.70;;
52542;SDS011;38449;52.696;6.186;2022-07-23T08:43:11;1.95;;;0.85;;
52542;SDS011;38449;52.696;6.186;2022-07-23T08:45:39;3.08;;;1.02;;
52542;SDS011;38449;52.696;6.186;2022-07-23T08:48:08;1.30;;;0.70;;
52542;SDS011;38449;52.696;6.186;2022-07-23T08:50:36;0.95;;;0.90;;
52542;SDS011;38449;52.696;6.186;2022-07-23T08:53:05;0.80;;;0.80;;
52542;SDS011;38449;52.696;6.186;2022-07-23T08:55:31;1.17;;;0.88;;
52542;SDS011;38449;52.696;6.186;2022-07-23T08:57:57;5.30;;;1.13;;
52542;SDS011;38449;52.696;6.186;2022-07-23T09:00:23;3.53;;;0.82;;
52542;SDS011;38449;52.696;6.186;2022-07-23T09:02:49;1.50;;;0.85;;
52542;SDS011;38449;52.696;6.186;2022-07-23T09:05:16;2.35;;;0.95;;
52542;SDS011;38449;52.696;6.186;2022-07-23T09:10:44;1.23;;;0.70;;
52542;SDS011;38449;52.696;6.186;2022-07-23T09:21:13;2.45;;;1.10;;
52542;SDS011;38449;52.696;6.186;2022-07-23T09:24:02;0.60;;;0.60;;
52542;SDS011;38449;52.696;6.186;2022-07-23T09:26:34;1.63;;;0.88;;
52542;SDS011;38449;52.696;6.186;2022-07-23T09:34:20;1.80;;;0.88;;
52542;SDS011;38449;52.696;6.186;2022-07-23T09:36:48;1.77;;;1.00;;
52542;SDS011;38449;52.696;6.186;2022-07-23T09:39:16;2.60;;;1.00;;
52542;SDS011;38449;52.696;6.186;2022-07-23T09:41:54;2.72;;;0.90;;
52542;SDS011;38449;52.696;6.186;2022-07-23T09:44:21;2.28;;;1.02;;
52542;SDS011;38449;52.696;6.186;2022-07-23T09:46:48;3.00;;;1.10;;
52542;SDS011;38449;52.696;6.186;2022-07-23T09:49:19;3.00;;;1.13;;
52542;SDS011;38449;52.696;6.186;2022-07-23T09:51:51;1.58;;;1.00;;
52542;SDS011;38449;52.696;6.186;2022-07-23T09:54:20;2.40;;;1.02;;
52542;SDS011;38449;52.696;6.186;2022-07-23T09:56:50;3.17;;;1.27;;
52542;SDS011;38449;52.696;6.186;2022-07-23T09:59:16;1.67;;;1.08;;
52542;SDS011;38449;52.696;6.186;2022-07-23T10:01:44;3.10;;;1.17;;
52542;SDS011;38449;52.696;6.186;2022-07-23T10:04:10;1.50;;;0.90;;
52542;SDS011;38449;52.696;6.186;2022-07-23T10:06:37;1.17;;;1.02;;
52542;SDS011;38449;52.696;6.186;2022-07-23T10:09:05;1.70;;;1.00;;
52542;SDS011;38449;52.696;6.186;2022-07-23T10:11:32;1.65;;;1.25;;
52542;SDS011;38449;52.696;6.186;2022-07-23T10:13:59;1.75;;;1.20;;
52542;SDS011;38449;52.696;6.186;2022-07-23T10:16:29;2.42;;;1.20;;
52542;SDS011;38449;52.696;6.186;2022-07-23T10:18:55;1.42;;;1.08;;
52542;SDS011;38449;52.696;6.186;2022-07-23T10:21:24;2.15;;;1.27;;
52542;SDS011;38449;52.696;6.186;2022-07-23T10:32:26;1.30;;;1.10;;
52542;SDS011;38449;52.696;6.186;2022-07-23T10:35:26;2.45;;;1.40;;
52542;SDS011;38449;52.696;6.186;2022-07-23T10:37:49;1.85;;;1.23;;
52542;SDS011;38449;52.696;6.186;2022-07-23T10:40:21;1.58;;;1.23;;
52542;SDS011;38449;52.696;6.186;2022-07-23T10:42:51;1.40;;;1.17;;
52542;SDS011;38449;52.696;6.186;2022-07-23T10:45:27;2.60;;;1.35;;
52542;SDS011;38449;52.696;6.186;2022-07-23T10:48:19;3.22;;;1.58;;
52542;SDS011;38449;52.696;6.186;2022-07-23T10:56:16;19.85;;;18.27;;
52542;SDS011;38449;52.696;6.186;2022-07-23T10:58:46;2.83;;;1.80;;
52542;SDS011;38449;52.696;6.186;2022-07-23T11:04:02;4.80;;;1.70;;
52542;SDS011;38449;52.696;6.186;2022-07-23T11:14:57;2.13;;;1.40;;
52542;SDS011;38449;52.696;6.186;2022-07-23T11:17:32;2.78;;;1.50;;
52542;SDS011;38449;52.696;6.186;2022-07-23T11:22:46;3.25;;;1.50;;
52542;SDS011;38449;52.696;6.186;2022-07-23T11:27:53;2.42;;;1.40;;
52542;SDS011;38449;52.696;6.186;2022-07-23T11:32:53;1.67;;;1.45;;
52542;SDS011;38449;52.696;6.186;2022-07-23T11:35:40;4.82;;;1.63;;
52542;SDS011;38449;52.696;6.186;2022-07-23T11:40:43;3.22;;;2.00;;
52542;SDS011;38449;52.696;6.186;2022-07-23T11:43:10;2.05;;;1.55;;
52542;SDS011;38449;52.696;6.186;2022-07-23T11:45:38;3.40;;;1.55;;
52542;SDS011;38449;52.696;6.186;2022-07-23T11:48:09;3.58;;;1.80;;
52542;SDS011;38449;52.696;6.186;2022-07-23T11:50:40;2.55;;;1.40;;
52542;SDS011;38449;52.696;6.186;2022-07-23T11:53:06;2.55;;;1.40;;
52542;SDS011;38449;52.696;6.186;2022-07-23T11:55:32;2.20;;;1.50;;
52542;SDS011;38449;52.696;6.186;2022-07-23T11:57:58;3.28;;;1.58;;
52542;SDS011;38449;52.696;6.186;2022-07-23T12:00:25;1.90;;;1.40;;
52542;SDS011;38449;52.696;6.186;2022-07-23T12:02:55;3.45;;;1.80;;
52542;SDS011;38449;52.696;6.186;2022-07-23T12:05:31;3.83;;;1.58;;
52542;SDS011;38449;52.696;6.186;2022-07-23T12:07:58;3.63;;;1.83;;
52542;SDS011;38449;52.696;6.186;2022-07-23T12:12:57;2.67;;;1.60;;
52542;SDS011;38449;52.696;6.186;2022-07-23T12:15:25;2.47;;;1.50;;
52542;SDS011;38449;52.696;6.186;2022-07-23T12:17:59;2.63;;;1.60;;
52542;SDS011;38449;52.696;6.186;2022-07-23T12:20:30;2.97;;;1.52;;
52542;SDS011;38449;52.696;6.186;2022-07-23T12:22:59;3.45;;;1.60;;
52542;SDS011;38449;52.696;6.186;2022-07-23T12:25:31;3.67;;;1.67;;
52542;SDS011;38449;52.696;6.186;2022-07-23T12:28:00;2.38;;;1.73;;
52542;SDS011;38449;52.696;6.186;2022-07-23T12:30:38;1.45;;;1.23;;
52542;SDS011;38449;52.696;6.186;2022-07-23T12:33:07;3.58;;;1.60;;
52542;SDS011;38449;52.696;6.186;2022-07-23T12:35:41;3.67;;;1.58;;
52542;SDS011;38449;52.696;6.186;2022-07-23T12:38:10;2.88;;;1.90;;
52542;SDS011;38449;52.696;6.186;2022-07-23T12:40:44;2.03;;;1.48;;
52542;SDS011;38449;52.696;6.186;2022-07-23T12:43:18;2.05;;;1.67;;
52542;SDS011;38449;52.696;6.186;2022-07-23T12:45:53;5.22;;;1.60;;
52542;SDS011;38449;52.696;6.186;2022-07-23T12:48:31;2.50;;;1.30;;
52542;SDS011;38449;52.696;6.186;2022-07-23T12:53:53;4.13;;;1.50;;
52542;SDS011;38449;52.696;6.186;2022-07-23T12:56:22;3.92;;;1.70;;
52542;SDS011;38449;52.696;6.186;2022-07-23T12:58:55;3.67;;;1.48;;
52542;SDS011;38449;52.696;6.186;2022-07-23T13:06:39;2.58;;;1.33;;
52542;SDS011;38449;52.696;6.186;2022-07-23T13:09:07;4.32;;;1.50;;
52542;SDS011;38449;52.696;6.186;2022-07-23T13:11:34;2.25;;;1.30;;
52542;SDS011;38449;52.696;6.186;2022-07-23T13:14:00;2.67;;;1.23;;
52542;SDS011;38449;52.696;6.186;2022-07-23T13:16:29;2.58;;;1.38;;
52542;SDS011;38449;52.696;6.186;2022-07-23T13:18:56;2.00;;;1.50;;
52542;SDS011;38449;52.696;6.186;2022-07-23T13:21:22;3.00;;;1.35;;
52542;SDS011;38449;52.696;6.186;2022-07-23T13:23:48;1.77;;;1.20;;
52542;SDS011;38449;52.696;6.186;2022-07-23T13:26:14;1.80;;;1.40;;
52542;SDS011;38449;52.696;6.186;2022-07-23T13:28:40;3.55;;;1.58;;
52542;SDS011;38449;52.696;6.186;2022-07-23T13:31:06;3.80;;;1.65;;
52542;SDS011;38449;52.696;6.186;2022-07-23T13:33:33;3.22;;;1.60;;
52542;SDS011;38449;52.696;6.186;2022-07-23T13:35:59;4.15;;;1.40;;
52542;SDS011;38449;52.696;6.186;2022-07-23T13:38:25;2.00;;;1.58;;
52542;SDS011;38449;52.696;6.186;2022-07-23T13:40:51;2.92;;;1.48;;
52542;SDS011;38449;52.696;6.186;2022-07-23T13:43:18;3.35;;;1.63;;
52542;SDS011;38449;52.696;6.186;2022-07-23T13:45:45;1.42;;;1.30;;
52542;SDS011;38449;52.696;6.186;2022-07-23T13:48:11;1.95;;;1.40;;
52542;SDS011;38449;52.696;6.186;2022-07-23T13:50:38;1.88;;;1.20;;
52542;SDS011;38449;52.696;6.186;2022-07-23T13:53:08;2.50;;;1.70;;
52542;SDS011;38449;52.696;6.186;2022-07-23T13:55:36;1.92;;;1.50;;
52542;SDS011;38449;52.696;6.186;2022-07-23T13:58:04;1.75;;;1.30;;
52542;SDS011;38449;52.696;6.186;2022-07-23T14:00:30;2.65;;;1.50;;
52542;SDS011;38449;52.696;6.186;2022-07-23T14:02:57;2.78;;;1.70;;
52542;SDS011;38449;52.696;6.186;2022-07-23T14:05:23;1.70;;;1.20;;
52542;SDS011;38449;52.696;6.186;2022-07-23T14:07:48;2.45;;;1.55;;
52542;SDS011;38449;52.696;6.186;2022-07-23T14:10:17;2.20;;;1.60;;
52542;SDS011;38449;52.696;6.186;2022-07-23T14:12:44;2.20;;;1.40;;
52542;SDS011;38449;52.696;6.186;2022-07-23T14:15:12;2.10;;;1.50;;
52542;SDS011;38449;52.696;6.186;2022-07-23T14:17:38;2.35;;;1.40;;
52542;SDS011;38449;52.696;6.186;2022-07-23T14:20:06;3.13;;;1.63;;
52542;SDS011;38449;52.696;6.186;2022-07-23T14:22:32;3.05;;;1.60;;
52542;SDS011;38449;52.696;6.186;2022-07-23T14:24:58;1.63;;;1.38;;
52542;SDS011;38449;52.696;6.186;2022-07-23T14:27:25;2.20;;;1.40;;
52542;SDS011;38449;52.696;6.186;2022-07-23T14:29:52;1.90;;;1.60;;
52542;SDS011;38449;52.696;6.186;2022-07-23T14:32:18;3.47;;;1.95;;
52542;SDS011;38449;52.696;6.186;2022-07-23T14:34:45;2.33;;;1.70;;
52542;SDS011;38449;52.696;6.186;2022-07-23T14:37:10;2.67;;;1.73;;
52542;SDS011;38449;52.696;6.186;2022-07-23T14:39:37;2.33;;;1.60;;
52542;SDS011;38449;52.696;6.186;2022-07-23T14:42:03;1.60;;;1.50;;
52542;SDS011;38449;52.696;6.186;2022-07-23T14:44:30;3.50;;;1.60;;
52542;SDS011;38449;52.696;6.186;2022-07-23T14:46:55;2.63;;;2.00;;
52542;SDS011;38449;52.696;6.186;2022-07-23T14:49:21;2.83;;;1.67;;
52542;SDS011;38449;52.696;6.186;2022-07-23T14:51:47;2.15;;;1.50;;
52542;SDS011;38449;52.696;6.186;2022-07-23T14:54:13;3.10;;;1.70;;
52542;SDS011;38449;52.696;6.186;2022-07-23T14:56:39;1.98;;;1.60;;
52542;SDS011;38449;52.696;6.186;2022-07-23T14:59:06;2.10;;;1.50;;
52542;SDS011;38449;52.696;6.186;2022-07-23T15:01:32;2.17;;;1.52;;
52542;SDS011;38449;52.696;6.186;2022-07-23T15:03:58;2.00;;;1.40;;
52542;SDS011;38449;52.696;6.186;2022-07-23T15:06:24;1.83;;;1.40;;
52542;SDS011;38449;52.696;6.186;2022-07-23T15:08:50;2.72;;;1.60;;
52542;SDS011;38449;52.696;6.186;2022-07-23T15:11:16;3.35;;;1.88;;
52542;SDS011;38449;52.696;6.186;2022-07-23T15:13:41;3.00;;;1.42;;
52542;SDS011;38449;52.696;6.186;2022-07-23T15:16:07;4.22;;;1.80;;
52542;SDS011;38449;52.696;6.186;2022-07-23T15:18:33;2.60;;;1.80;;
52542;SDS011;38449;52.696;6.186;2022-07-23T15:20:59;2.85;;;1.67;;
52542;SDS011;38449;52.696;6.186;2022-07-23T15:23:26;2.58;;;1.98;;
52542;SDS011;38449;52.696;6.186;2022-07-23T15:25:53;2.75;;;1.85;;
52542;SDS011;38449;52.696;6.186;2022-07-23T15:28:19;1.88;;;1.50;;
52542;SDS011;38449;52.696;6.186;2022-07-23T15:30:45;2.33;;;1.55;;
52542;SDS011;38449;52.696;6.186;2022-07-23T15:33:11;2.25;;;1.70;;
52542;SDS011;38449;52.696;6.186;2022-07-23T15:35:36;4.15;;;1.80;;
52542;SDS011;38449;52.696;6.186;2022-07-23T15:38:02;3.70;;;2.00;;
52542;SDS011;38449;52.696;6.186;2022-07-23T15:40:28;4.07;;;2.08;;
52542;SDS011;38449;52.696;6.186;2022-07-23T15:42:54;3.97;;;2.03;;
52542;SDS011;38449;52.696;6.186;2022-07-23T15:45:19;2.92;;;1.77;;
52542;SDS011;38449;52.696;6.186;2022-07-23T15:47:46;3.22;;;2.10;;
52542;SDS011;38449;52.696;6.186;2022-07-23T15:50:13;2.45;;;1.60;;